Denhoff, North Dakota
Current Conditions -  °F | °C
As of 5:35 AM on Saturday 20 Dec 2014 (Local Time) from K5H4 Reporting Station
Moderate Fog Moderate Fog  
Wind Chill: 19°   Ceiling: 100
Heat Index: 25°   Visibility: 0.25mi
Dew Point: 25°   Wind: 5mph
Humidity: 100%   Direction: 150°SSE
Pressure: 29.94"   Gusts: NA
Location:  47.48°N, 100.26°W
Report Text: K5H4 201135Z AUTO 15004KT 1/4SM FZFG OVC001 M04/M04 A2994 RMK AO2
Loading
Personal Weather Stations






























Interactive Weather Map New forecast layout! Learn more

10-Day Weather Forecast

Advertisements
Track Severe Weather on mobile